createdAt,value
2024-01-07T00:00:13.561Z,93186.47
2024-01-07T00:02:40.509Z,93185.50
2024-01-07T00:05:08.073Z,93181.31
2024-01-07T00:07:35.114Z,93182.81
2024-01-07T00:10:02.176Z,93174.28
2024-01-07T00:12:29.224Z,93166.09
2024-01-07T00:14:56.234Z,93172.75
2024-01-07T00:17:23.228Z,93161.94
2024-01-07T00:19:50.335Z,93161.63
2024-01-07T00:22:17.362Z,93161.78
2024-01-07T00:24:44.340Z,93154.88
2024-01-07T00:27:11.323Z,93145.97
2024-01-07T00:29:38.465Z,93142.22
2024-01-07T00:32:06.964Z,93146.72
2024-01-07T00:34:33.977Z,93137.09
2024-01-07T00:37:01.100Z,93126.19
2024-01-07T00:39:28.349Z,93115.69
2024-01-07T00:41:55.297Z,93112.84
2024-01-07T00:44:22.240Z,93106.44
2024-01-07T00:46:49.546Z,93102.94
2024-01-07T00:49:16.950Z,93097.72
2024-01-07T00:51:44.230Z,93100.38
2024-01-07T00:54:11.319Z,93087.31
2024-01-07T00:56:38.242Z,93084.63
2024-01-07T00:59:05.158Z,93081.16
2024-01-07T01:01:32.798Z,93076.78
2024-01-07T01:03:59.966Z,93076.78
2024-01-07T01:06:27.077Z,93066.59
2024-01-07T01:08:54.021Z,93071.63
2024-01-07T01:11:20.942Z,93065.84
2024-01-07T01:13:48.859Z,93053.97
2024-01-07T01:16:16.031Z,93057.59
2024-01-07T01:18:43.085Z,93056.50
2024-01-07T01:21:10.889Z,93044.72
2024-01-07T01:23:37.774Z,93048.34
2024-01-07T01:26:04.950Z,93029.03
2024-01-07T01:28:31.818Z,93024.63
2024-01-07T01:30:58.850Z,93015.84
2024-01-07T01:33:26.081Z,93005.66
2024-01-07T01:35:53.090Z,93001.75
2024-01-07T01:38:20.059Z,92989.03
2024-01-07T01:40:55.982Z,92984.00
2024-01-07T01:43:27.521Z,92972.22
2024-01-07T01:45:55.935Z,92979.00
2024-01-07T01:48:24.322Z,92979.03
2024-01-07T01:50:51.986Z,92972.75
2024-01-07T01:53:19.020Z,92965.84
2024-01-07T01:55:46.025Z,92944.00
2024-01-07T01:58:14.858Z,92949.03
2024-01-07T02:00:42.180Z,92948.13
2024-01-07T02:03:09.265Z,92948.78
2024-01-07T02:05:36.425Z,92945.63
2024-01-07T02:08:04.014Z,92951.28
2024-01-07T02:10:35.756Z,92958.34
2024-01-07T02:13:03.747Z,92954.69
2024-01-07T02:15:31.455Z,92952.97
2024-01-07T02:17:58.555Z,92937.56
2024-01-07T02:20:25.614Z,92937.31
2024-01-07T02:22:53.035Z,92927.84
2024-01-07T02:25:20.058Z,92922.69
2024-01-07T02:27:47.220Z,92909.50
2024-01-07T02:30:14.323Z,92889.69
2024-01-07T02:32:41.430Z,92863.41
2024-01-07T02:35:08.578Z,92855.19
2024-01-07T02:37:35.717Z,92858.06
2024-01-07T02:40:02.838Z,92859.06
2024-01-07T02:42:31.593Z,92872.44
2024-01-07T02:44:58.614Z,92866.75
2024-01-07T02:47:25.566Z,92862.69
2024-01-07T02:49:52.787Z,92860.34
2024-01-07T02:52:19.810Z,92867.88
2024-01-07T02:54:46.756Z,92879.03
2024-01-07T02:57:13.880Z,92872.13
2024-01-07T02:59:40.724Z,92879.34
2024-01-07T03:02:07.729Z,92882.94
2024-01-07T03:04:34.658Z,92895.19
2024-01-07T03:07:01.588Z,92907.94
2024-01-07T03:09:29.310Z,92925.06
2024-01-07T03:11:56.312Z,92927.91
2024-01-07T03:14:24.511Z,92935.41
2024-01-07T03:16:51.705Z,92922.56
2024-01-07T03:19:18.761Z,92931.63
2024-01-07T03:21:45.872Z,92933.84
2024-01-07T03:24:12.831Z,92933.19
2024-01-07T03:26:39.799Z,92934.00
2024-01-07T03:29:06.791Z,92929.41
2024-01-07T03:31:33.852Z,92931.31
2024-01-07T03:34:00.992Z,92943.06
2024-01-07T03:36:28.098Z,92927.19
2024-01-07T03:38:55.485Z,92919.63
2024-01-07T03:41:22.744Z,92918.69
2024-01-07T03:43:50.270Z,92931.53
2024-01-07T03:46:18.351Z,92933.25
2024-01-07T03:48:46.298Z,92920.47
2024-01-07T03:51:13.388Z,92913.91
2024-01-07T03:53:40.443Z,92902.31
2024-01-07T03:56:07.565Z,92901.03
2024-01-07T03:58:35.814Z,92888.00
2024-01-07T04:01:02.913Z,92887.59
2024-01-07T04:03:30.070Z,92881.00
2024-01-07T04:05:57.114Z,92876.09
2024-01-07T04:08:24.103Z,92880.66
2024-01-07T04:10:51.106Z,92880.00
2024-01-07T04:13:18.925Z,92877.00
2024-01-07T04:15:46.180Z,92878.56
2024-01-07T04:18:13.176Z,92867.88
2024-01-07T04:20:40.164Z,92866.59
2024-01-07T04:23:07.134Z,92843.19
2024-01-07T04:25:34.164Z,92835.44
2024-01-07T04:28:01.301Z,92829.41
2024-01-07T04:30:28.418Z,92822.41
2024-01-07T04:32:55.420Z,92820.31
2024-01-07T04:35:22.416Z,92840.56
2024-01-07T04:37:49.586Z,92843.13
2024-01-07T04:40:16.700Z,92830.75
2024-01-07T04:42:43.692Z,92833.09
2024-01-07T04:45:10.729Z,92825.03
2024-01-07T04:47:37.837Z,92824.75
2024-01-07T04:50:05.830Z,92836.13
2024-01-07T04:52:32.773Z,92835.22
2024-01-07T04:54:59.726Z,92832.88
2024-01-07T04:57:26.907Z,92831.63
2024-01-07T04:59:54.306Z,92833.78
2024-01-07T05:02:21.683Z,92840.19
2024-01-07T05:04:48.824Z,92853.97
2024-01-07T05:07:15.933Z,92857.13
2024-01-07T05:09:42.970Z,92844.03
2024-01-07T05:12:09.907Z,92843.72
2024-01-07T05:14:37.912Z,92828.00
2024-01-07T05:17:05.427Z,92826.44
2024-01-07T05:19:32.574Z,92825.00
2024-01-07T05:22:00.305Z,92834.16
2024-01-07T05:24:27.458Z,92824.19
2024-01-07T05:26:54.456Z,92821.09
2024-01-07T05:29:21.522Z,92824.66
2024-01-07T05:31:48.909Z,92822.69
2024-01-07T05:34:16.295Z,92827.56
2024-01-07T05:36:43.450Z,92821.97
2024-01-07T05:39:10.732Z,92823.31
2024-01-07T05:41:40.042Z,92820.50
2024-01-07T05:44:10.451Z,92822.63
2024-01-07T05:46:41.049Z,92809.91
2024-01-07T05:49:09.820Z,92809.94
2024-01-07T05:51:41.161Z,92815.59
2024-01-07T05:54:08.163Z,92810.72
2024-01-07T05:56:41.544Z,92801.94
2024-01-07T05:59:09.383Z,92810.94
2024-01-07T06:01:36.588Z,92812.44
2024-01-07T06:04:04.011Z,92811.97
2024-01-07T06:06:31.613Z,92812.75
2024-01-07T06:08:58.882Z,92808.31
2024-01-07T06:11:25.869Z,92809.34
2024-01-07T06:13:52.795Z,92796.94
2024-01-07T06:16:19.776Z,92798.00
2024-01-07T06:18:46.995Z,92800.47
2024-01-07T06:21:14.903Z,92812.84
2024-01-07T06:23:41.877Z,92804.69
2024-01-07T06:26:09.086Z,92810.53
2024-01-07T06:28:35.960Z,92806.38
2024-01-07T06:31:06.106Z,92823.72
2024-01-07T06:33:33.363Z,92829.91
2024-01-07T06:36:01.729Z,92831.38
2024-01-07T06:38:28.837Z,92823.53
2024-01-07T06:40:59.931Z,92836.44
2024-01-07T06:43:28.872Z,92843.03
2024-01-07T06:45:55.890Z,92834.72
2024-01-07T06:48:22.982Z,92847.44
2024-01-07T06:50:49.952Z,92833.41
2024-01-07T06:53:17.727Z,92831.66
2024-01-07T06:55:47.068Z,92835.25
2024-01-07T06:58:14.132Z,92842.63
2024-01-07T07:00:41.140Z,92834.44
2024-01-07T07:03:10.111Z,92845.25
2024-01-07T07:05:37.312Z,92842.25
2024-01-07T07:08:04.503Z,92855.31
2024-01-07T07:10:32.937Z,92853.88
2024-01-07T07:12:59.953Z,92851.31
2024-01-07T07:15:29.038Z,92859.34
2024-01-07T07:17:57.075Z,92864.72
2024-01-07T07:20:24.043Z,92854.13
2024-01-07T07:22:51.670Z,92850.06
2024-01-07T07:25:18.612Z,92847.38
2024-01-07T07:27:45.597Z,92848.75
2024-01-07T07:30:12.905Z,92842.53
2024-01-07T07:32:43.259Z,92861.88
2024-01-07T07:35:10.294Z,92853.19
2024-01-07T07:37:37.401Z,92855.66
2024-01-07T07:40:04.885Z,92862.59
2024-01-07T07:42:32.111Z,92853.00
2024-01-07T07:44:59.062Z,92845.53
2024-01-07T07:47:26.096Z,92852.13
2024-01-07T07:49:53.357Z,92829.88
2024-01-07T07:52:23.351Z,92833.44
2024-01-07T07:54:50.657Z,92834.81
2024-01-07T07:57:17.645Z,92838.53
2024-01-07T07:59:44.536Z,92832.72
2024-01-07T08:02:11.597Z,92829.78
2024-01-07T08:04:38.586Z,92827.44
2024-01-07T08:07:05.535Z,92818.75
2024-01-07T08:09:32.491Z,92827.81
2024-01-07T08:11:59.736Z,92825.41
2024-01-07T08:14:26.643Z,92823.16
2024-01-07T08:16:53.945Z,92819.16
2024-01-07T08:19:21.697Z,92832.09
2024-01-07T08:21:48.990Z,92822.72
2024-01-07T08:24:16.022Z,92827.91
2024-01-07T08:26:42.965Z,92822.19
2024-01-07T08:29:09.985Z,92818.16
2024-01-07T08:31:37.107Z,92822.09
2024-01-07T08:34:04.226Z,92818.50
2024-01-07T08:36:31.338Z,92823.75
2024-01-07T08:38:58.334Z,92822.19
2024-01-07T08:41:25.384Z,92807.66
2024-01-07T08:43:52.503Z,92839.50
2024-01-07T08:46:22.728Z,92823.09
2024-01-07T08:48:49.970Z,92820.31
2024-01-07T08:51:17.094Z,92821.88
2024-01-07T08:53:44.043Z,92826.69
2024-01-07T08:56:11.385Z,92809.69
2024-01-07T08:58:38.562Z,92818.84
2024-01-07T09:01:05.783Z,92815.28
2024-01-07T09:03:32.973Z,92811.78
2024-01-07T09:06:00.230Z,92807.63
2024-01-07T09:08:27.415Z,92807.03
2024-01-07T09:10:54.362Z,92812.41
2024-01-07T09:13:21.351Z,92812.81
2024-01-07T09:15:48.374Z,92817.69
2024-01-07T09:18:15.425Z,92811.50
2024-01-07T09:20:42.366Z,92811.69
2024-01-07T09:23:09.302Z,92814.25
2024-01-07T09:25:36.871Z,92811.66
2024-01-07T09:28:04.224Z,92814.00
2024-01-07T09:30:31.498Z,92816.09
2024-01-07T09:32:59.140Z,92808.84
2024-01-07T09:35:26.820Z,92810.06
2024-01-07T09:37:53.981Z,92809.66
2024-01-07T09:40:21.247Z,92807.56
2024-01-07T09:42:48.572Z,92798.63
2024-01-07T09:45:15.652Z,92794.25
2024-01-07T09:47:44.944Z,92806.78
2024-01-07T09:50:12.278Z,92800.19
2024-01-07T09:52:43.148Z,92799.69
2024-01-07T09:55:12.594Z,92797.31
2024-01-07T09:57:42.360Z,92789.25
2024-01-07T10:00:10.252Z,92801.31
2024-01-07T10:02:42.585Z,92792.03
2024-01-07T10:05:09.564Z,92781.31
2024-01-07T10:07:36.542Z,92774.78
2024-01-07T10:10:15.780Z,92767.69
2024-01-07T10:12:43.903Z,92766.13
2024-01-07T10:15:10.919Z,92756.69
2024-01-07T10:17:37.941Z,92755.63
2024-01-07T10:20:06.471Z,92752.22
2024-01-07T10:22:33.628Z,92760.97
2024-01-07T10:25:00.707Z,92740.00
2024-01-07T10:27:28.008Z,92748.34
2024-01-07T10:29:56.640Z,92746.78
2024-01-07T10:32:23.615Z,92736.47
2024-01-07T10:34:56.207Z,92740.00
2024-01-07T10:37:24.050Z,92731.16
2024-01-07T10:39:51.111Z,92726.78
2024-01-07T10:42:19.766Z,92730.63
2024-01-07T10:44:46.801Z,92718.44
2024-01-07T10:47:15.933Z,92722.13
2024-01-07T10:49:45.750Z,92714.91
2024-01-07T10:52:13.099Z,92729.97
2024-01-07T10:54:43.200Z,92715.38
2024-01-07T10:57:45.163Z,92727.97
2024-01-07T11:00:21.373Z,92726.53
2024-01-07T11:03:00.591Z,92724.25
2024-01-07T11:05:50.320Z,92731.94
2024-01-07T11:08:51.620Z,92726.13
2024-01-07T11:11:24.539Z,92723.81
2024-01-07T11:13:51.732Z,92728.56
2024-01-07T11:16:42.571Z,92727.63
2024-01-07T11:19:09.654Z,92714.16
2024-01-07T11:21:36.753Z,92724.50
2024-01-07T11:24:03.938Z,92719.63
2024-01-07T11:26:31.728Z,92731.47
2024-01-07T11:28:59.546Z,92730.44
2024-01-07T11:31:51.894Z,92719.41
2024-01-07T11:34:50.946Z,92722.34
2024-01-07T11:37:18.364Z,92721.66
2024-01-07T11:39:50.793Z,92721.81
2024-01-07T11:42:18.155Z,92718.06
2024-01-07T11:45:04.649Z,92717.59
2024-01-07T11:47:31.692Z,92725.50
2024-01-07T11:49:58.729Z,92712.75
2024-01-07T11:52:25.952Z,92723.16
2024-01-07T11:54:53.179Z,92719.03
2024-01-07T11:57:20.268Z,92719.78
2024-01-07T11:59:52.138Z,92719.78
2024-01-07T12:02:20.543Z,92710.94
2024-01-07T12:04:48.353Z,92704.69
2024-01-07T12:07:16.153Z,92710.41
2024-01-07T12:09:43.276Z,92707.59
2024-01-07T12:12:10.397Z,92712.00
2024-01-07T12:14:37.446Z,92714.94
2024-01-07T12:17:04.771Z,92711.69
2024-01-07T12:19:31.779Z,92716.81
2024-01-07T12:22:07.189Z,92721.22
2024-01-07T12:24:34.662Z,92724.28
2024-01-07T12:27:08.468Z,92713.56
2024-01-07T12:29:35.808Z,92714.66
2024-01-07T12:32:04.680Z,92708.84
2024-01-07T12:34:32.219Z,92719.63
2024-01-07T12:37:01.019Z,92718.06
2024-01-07T12:39:29.168Z,92714.00
2024-01-07T12:41:56.447Z,92717.16
2024-01-07T12:44:23.588Z,92725.13
2024-01-07T12:46:53.212Z,92719.69
2024-01-07T12:49:23.935Z,92721.19
2024-01-07T12:51:51.299Z,92726.56
2024-01-07T12:54:18.324Z,92721.88
2024-01-07T12:56:45.281Z,92728.38
2024-01-07T12:59:12.226Z,92728.84
2024-01-07T13:01:39.646Z,92730.41
2024-01-07T13:04:07.005Z,92737.34
2024-01-07T13:06:34.182Z,92748.91
2024-01-07T13:09:04.870Z,92741.88
2024-01-07T13:11:33.450Z,92740.13
2024-01-07T13:14:01.831Z,92732.78
2024-01-07T13:16:29.481Z,92735.09
2024-01-07T13:18:57.102Z,92738.59
2024-01-07T13:21:24.704Z,92734.75
2024-01-07T13:23:51.705Z,92741.28
2024-01-07T13:26:18.654Z,92740.13
2024-01-07T13:28:45.557Z,92740.13
2024-01-07T13:31:14.634Z,92745.88
2024-01-07T13:33:41.939Z,92745.81
2024-01-07T13:36:13.942Z,92744.53
2024-01-07T13:38:44.639Z,92745.94
2024-01-07T13:41:12.933Z,92747.38
2024-01-07T13:43:42.079Z,92741.84
2024-01-07T13:46:10.285Z,92740.81
2024-01-07T13:48:39.804Z,92752.13
2024-01-07T13:51:07.271Z,92748.13
2024-01-07T13:53:34.345Z,92755.09
2024-01-07T13:56:01.352Z,92749.00
2024-01-07T13:58:28.366Z,92751.78
2024-01-07T14:00:55.614Z,92760.28
2024-01-07T14:03:22.865Z,92752.56
2024-01-07T14:05:50.027Z,92759.75
2024-01-07T14:08:17.282Z,92764.66
2024-01-07T14:10:44.364Z,92767.97
2024-01-07T14:13:11.448Z,92777.88
2024-01-07T14:15:38.426Z,92774.06
2024-01-07T14:18:05.559Z,92773.63
2024-01-07T14:20:32.582Z,92767.88
2024-01-07T14:23:00.281Z,92777.88
2024-01-07T14:25:27.592Z,92767.53
2024-01-07T14:27:54.586Z,92767.97
2024-01-07T14:30:21.740Z,92774.91
2024-01-07T14:32:48.809Z,92773.34
2024-01-07T14:35:15.908Z,92772.56
2024-01-07T14:37:42.921Z,92774.41
2024-01-07T14:40:10.389Z,92774.56
2024-01-07T14:42:37.584Z,92780.50
2024-01-07T14:45:05.732Z,92777.38
2024-01-07T14:47:32.776Z,92788.81
2024-01-07T14:49:59.836Z,92789.94
2024-01-07T14:52:28.746Z,92795.66
2024-01-07T14:54:55.989Z,92799.56
2024-01-07T14:57:22.963Z,92790.38
2024-01-07T14:59:49.885Z,92797.31
2024-01-07T15:02:17.002Z,92793.50
2024-01-07T15:04:44.195Z,92791.16
2024-01-07T15:07:11.320Z,92804.94
2024-01-07T15:09:45.167Z,92804.16
2024-01-07T15:12:12.207Z,92804.09
2024-01-07T15:14:39.226Z,92802.53
2024-01-07T15:17:06.170Z,92808.25
2024-01-07T15:19:33.239Z,92797.84
2024-01-07T15:22:00.520Z,92813.97
2024-01-07T15:24:28.794Z,92811.63
2024-01-07T15:26:55.926Z,92814.59
2024-01-07T15:29:22.975Z,92821.41
2024-01-07T15:31:50.144Z,92818.72
2024-01-07T15:34:17.267Z,92818.22
2024-01-07T15:36:44.407Z,92825.06
2024-01-07T15:39:11.397Z,92818.81
2024-01-07T15:41:39.114Z,92813.44
2024-01-07T15:44:06.174Z,92815.69
2024-01-07T15:46:33.094Z,92825.94
2024-01-07T15:49:00.476Z,92822.25
2024-01-07T15:51:27.694Z,92821.81
2024-01-07T15:53:54.711Z,92822.16
2024-01-07T15:56:23.350Z,92823.63
2024-01-07T15:58:51.569Z,92828.47
2024-01-07T16:01:18.820Z,92832.50
2024-01-07T16:03:46.027Z,92834.75
2024-01-07T16:06:13.192Z,92840.13
2024-01-07T16:08:40.328Z,92837.78
2024-01-07T16:11:08.817Z,92844.53
2024-01-07T16:13:35.908Z,92843.97
2024-01-07T16:16:05.753Z,92848.13
2024-01-07T16:21:00.104Z,92846.03
2024-01-07T16:23:28.677Z,92840.31
2024-01-07T16:25:55.717Z,92834.25
2024-01-07T16:28:24.600Z,92843.97
2024-01-07T16:30:51.775Z,92845.09
2024-01-07T16:33:19.090Z,92855.75
2024-01-07T16:35:46.129Z,92851.75
2024-01-07T16:38:14.975Z,92850.94
2024-01-07T16:40:43.562Z,92850.16
2024-01-07T16:43:11.247Z,92855.97
2024-01-07T16:45:39.175Z,92859.78
2024-01-07T16:48:06.838Z,92859.34
2024-01-07T16:50:34.517Z,92853.97
2024-01-07T16:53:03.652Z,92860.91
2024-01-07T16:55:30.911Z,92865.81
2024-01-07T16:57:58.048Z,92870.97
2024-01-07T17:00:25.148Z,92870.34
2024-01-07T17:02:52.227Z,92875.25
2024-01-07T17:05:19.938Z,92872.34
2024-01-07T17:07:49.217Z,92872.56
2024-01-07T17:10:17.765Z,92875.94
2024-01-07T17:12:45.001Z,92874.47
2024-01-07T17:15:14.164Z,92878.41
2024-01-07T17:17:41.612Z,92884.66
2024-01-07T17:20:09.988Z,92881.19
2024-01-07T17:22:37.554Z,92881.97
2024-01-07T17:25:05.248Z,92883.09
2024-01-07T17:27:32.302Z,92887.59
2024-01-07T17:29:59.412Z,92887.81
2024-01-07T17:32:26.576Z,92885.78
2024-01-07T17:34:55.792Z,92888.94
2024-01-07T17:37:23.822Z,92893.19
2024-01-07T17:39:50.884Z,92887.47
2024-01-07T17:42:18.839Z,92901.47
2024-01-07T17:44:45.794Z,92897.66
2024-01-07T17:47:13.274Z,92908.50
2024-01-07T17:49:40.722Z,92918.00
2024-01-07T17:52:07.766Z,92915.34
2024-01-07T17:54:37.880Z,92917.59
2024-01-07T17:57:05.953Z,92914.31
2024-01-07T17:59:35.315Z,92915.09
2024-01-07T18:02:03.538Z,92914.75
2024-01-07T18:04:30.689Z,92917.25
2024-01-07T18:06:57.734Z,92918.38
2024-01-07T18:09:26.163Z,92922.97
2024-01-07T18:11:53.104Z,92920.91
2024-01-07T18:14:21.949Z,92917.34
2024-01-07T18:16:49.406Z,92932.59
2024-01-07T18:19:16.988Z,92930.91
2024-01-07T18:21:46.616Z,92930.56
2024-01-07T18:24:15.457Z,92927.88
2024-01-07T18:26:42.446Z,92934.94
2024-01-07T18:29:11.070Z,92943.31
2024-01-07T18:31:44.452Z,92947.81
2024-01-07T18:34:12.017Z,92946.25
2024-01-07T18:36:39.098Z,92950.16
2024-01-07T18:39:08.347Z,92960.13
2024-01-07T18:41:36.675Z,92953.88
2024-01-07T18:44:04.497Z,92956.09
2024-01-07T18:46:31.544Z,92962.25
2024-01-07T18:48:58.746Z,92959.91
2024-01-07T18:51:25.786Z,92960.69
2024-01-07T18:53:52.746Z,92968.41
2024-01-07T18:56:23.255Z,92960.34
2024-01-07T18:58:50.508Z,92961.47
2024-01-07T19:01:17.648Z,92962.91
2024-01-07T19:03:44.851Z,92970.41
2024-01-07T19:06:11.923Z,92964.16
2024-01-07T19:08:39.072Z,92971.88
2024-01-07T19:11:06.146Z,92970.41
2024-01-07T19:13:34.416Z,92977.34
2024-01-07T19:16:01.525Z,92969.63
2024-01-07T19:18:29.168Z,92976.56
2024-01-07T19:20:56.347Z,92977.34
2024-01-07T19:23:23.413Z,92981.16
2024-01-07T19:25:51.363Z,92980.38
2024-01-07T19:28:18.814Z,92981.81
2024-01-07T19:30:48.661Z,92984.06
2024-01-07T19:33:19.923Z,92983.28
2024-01-07T19:35:46.972Z,92984.75
2024-01-07T19:38:15.136Z,92984.28
2024-01-07T19:40:42.509Z,92991.13
2024-01-07T19:43:09.638Z,92988.44
2024-01-07T19:45:36.657Z,92995.38
2024-01-07T19:48:05.566Z,92991.56
2024-01-07T19:50:32.802Z,92994.69
2024-01-07T19:53:00.167Z,92992.47
2024-01-07T19:55:27.160Z,92992.78
2024-01-07T19:57:54.089Z,92996.16
2024-01-07T20:00:21.050Z,92993.66
2024-01-07T20:02:50.421Z,92999.69
2024-01-07T20:05:18.264Z,92995.00
2024-01-07T20:07:45.262Z,93002.59
2024-01-07T20:10:12.418Z,92996.34
2024-01-07T20:12:39.379Z,93005.84
2024-01-07T20:15:08.877Z,93004.28
2024-01-07T20:17:37.358Z,93005.72
2024-01-07T20:20:04.862Z,93009.06
2024-01-07T20:22:32.674Z,93006.72
2024-01-07T20:24:59.638Z,93015.75
2024-01-07T20:27:26.533Z,93012.84
2024-01-07T20:29:54.011Z,93016.97
2024-01-07T20:32:21.040Z,93014.59
2024-01-07T20:34:48.439Z,93016.97
2024-01-07T20:37:15.456Z,93024.34
2024-01-07T20:39:42.486Z,93021.69
2024-01-07T20:42:22.663Z,93025.81
2024-01-07T20:44:59.058Z,93029.59
2024-01-07T20:47:26.173Z,93030.69
2024-01-07T20:49:53.726Z,93035.44
2024-01-07T20:52:22.596Z,93027.81
2024-01-07T20:54:50.706Z,93041.81
2024-01-07T20:57:17.721Z,93034.53
2024-01-07T20:59:45.037Z,93040.69
2024-01-07T21:02:14.325Z,93041.47
2024-01-07T21:04:46.372Z,93050.44
2024-01-07T21:07:13.671Z,93049.66
2024-01-07T21:09:40.832Z,93053.81
2024-01-07T21:12:09.333Z,93055.34
2024-01-07T21:14:36.424Z,93052.88
2024-01-07T21:17:04.028Z,93057.06
2024-01-07T21:19:31.556Z,93055.72
2024-01-07T21:21:58.481Z,93067.44
2024-01-07T21:24:25.482Z,93060.06
2024-01-07T21:26:53.064Z,93065.41
2024-01-07T21:29:20.766Z,93068.56
2024-01-07T21:31:50.511Z,93072.22
2024-01-07T21:34:17.941Z,93066.88
2024-01-07T21:36:44.969Z,93072.69
2024-01-07T21:39:12.113Z,93072.84
2024-01-07T21:41:43.785Z,93077.13
2024-01-07T21:44:12.600Z,93083.75
2024-01-07T21:46:47.303Z,93075.69
2024-01-07T21:49:18.280Z,93074.44
2024-01-07T21:51:45.598Z,93088.31
2024-01-07T21:54:12.692Z,93083.25
2024-01-07T21:56:39.734Z,93084.38
2024-01-07T21:59:06.793Z,93090.53
2024-01-07T22:01:33.813Z,93087.72
2024-01-07T22:04:00.881Z,93094.97
2024-01-07T22:06:28.041Z,93087.72
2024-01-07T22:08:55.157Z,93091.19
2024-01-07T22:11:22.254Z,93089.50
2024-01-07T22:13:49.247Z,93097.88
2024-01-07T22:16:16.647Z,93091.25
2024-01-07T22:18:43.827Z,93101.91
2024-01-07T22:21:19.702Z,93095.44
2024-01-07T22:23:47.362Z,93097.94
2024-01-07T22:26:17.980Z,93098.91
2024-01-07T22:28:46.412Z,93099.88
2024-01-07T22:31:14.181Z,93105.44
2024-01-07T22:33:41.797Z,93106.56
2024-01-07T22:36:09.111Z,93111.53
2024-01-07T22:38:36.447Z,93111.06
2024-01-07T22:41:04.085Z,93110.28
2024-01-07T22:43:31.511Z,93111.47
2024-01-07T22:45:58.488Z,93112.63
2024-01-07T22:48:25.940Z,93112.38
2024-01-07T22:50:52.958Z,93110.72
2024-01-07T22:53:19.940Z,93122.63
2024-01-07T22:55:51.884Z,93121.41
2024-01-07T22:58:20.708Z,93122.66
2024-01-07T23:00:49.652Z,93126.47
2024-01-07T23:03:16.709Z,93128.69
2024-01-07T23:05:43.780Z,93130.72
2024-01-07T23:08:10.892Z,93125.19
2024-01-07T23:10:37.830Z,93128.59
2024-01-07T23:13:04.833Z,93133.06
2024-01-07T23:15:31.744Z,93129.09
2024-01-07T23:17:58.772Z,93131.47
2024-01-07T23:20:26.087Z,93125.44
2024-01-07T23:22:53.003Z,93128.31
2024-01-07T23:25:20.883Z,93133.06
2024-01-07T23:27:47.894Z,93141.59
2024-01-07T23:30:15.384Z,93138.28
2024-01-07T23:32:42.427Z,93146.47
2024-01-07T23:35:10.021Z,93150.59
2024-01-07T23:37:37.029Z,93151.47
2024-01-07T23:40:04.761Z,93142.00
2024-01-07T23:42:31.660Z,93150.41
2024-01-07T23:44:58.909Z,93149.63
2024-01-07T23:47:26.329Z,93152.00
2024-01-07T23:49:53.624Z,93161.75
2024-01-07T23:52:20.597Z,93152.31
2024-01-07T23:54:48.964Z,93157.69
2024-01-07T23:57:15.980Z,93161.78
2024-01-07T23:59:42.904Z,93159.63
